Time;durP1;ratioP1;P1;durP2;ratioP2;P2;SDS_P1;SDS_P2;PMS_P1;PMS_P2;Temp;Humidity;BMP_temperature;BMP_pressure;BME280_temperature;BME280_humidity;BME280_pressure;Samples;Min_cycle;Max_cycle;Signal;HPM_P1;HPM_P2
2021/08/18 00:01:24;;;;;;;0.10;0.10;;;;;;;20.84;66.13;99254.44;6210692;23;20090;-77
2021/08/18 00:03:49;;;;;;;0.05;0.05;;;;;;;20.88;67.39;99252.06;6183979;23;20440;-78
2021/08/18 00:06:15;;;;;;;0.10;0.10;;;;;;;20.86;67.04;99256.94;6209113;23;20020;-78
2021/08/18 00:08:42;;;;;;;0.10;0.10;;;;;;;20.86;67.01;99248.69;6158671;23;20024;-76
2021/08/18 00:11:09;;;;;;;0.10;0.10;;;;;;;20.88;66.27;99243.84;6183433;23;20459;-74
2021/08/18 00:13:35;;;;;;;0.10;0.10;;;;;;;20.87;65.98;99240.22;6208748;23;20020;-75
2021/08/18 00:16:01;;;;;;;0.10;0.10;;;;;;;20.84;65.55;99240.69;6210301;23;20104;-74
2021/08/18 00:18:28;;;;;;;0.10;0.10;;;;;;;20.89;65.39;99240.84;6159506;23;20017;-74
2021/08/18 00:20:54;;;;;;;0.10;0.10;;;;;;;20.87;65.60;99237.47;6183637;23;20478;-76
2021/08/18 00:23:20;;;;;;;0.10;0.10;;;;;;;20.88;65.53;99236.41;6210057;23;20020;-74
2021/08/18 00:25:46;;;;;;;0.10;0.10;;;;;;;20.93;64.48;99231.06;6208087;23;20104;-74
2021/08/18 00:28:12;;;;;;;0.10;0.10;;;;;;;20.99;64.53;99236.69;6208181;23;20028;-75
2021/08/18 00:30:38;;;;;;;0.10;0.10;;;;;;;21.01;64.32;99229.09;6208227;23;20024;-74
2021/08/18 00:33:03;;;;;;;0.10;0.10;;;;;;;21.06;63.92;99231.97;6207435;23;20032;-76
2021/08/18 00:35:29;;;;;;;0.10;0.10;;;;;;;21.07;63.51;99226.25;6183128;23;20021;-73
2021/08/18 00:37:55;;;;;;;0.10;0.10;;;;;;;21.05;63.74;99230.31;6208521;23;20411;-74
2021/08/18 00:40:21;;;;;;;0.10;0.10;;;;;;;21.07;63.45;99222.69;6210610;23;20055;-76
2021/08/18 00:42:47;;;;;;;0.10;0.10;;;;;;;21.04;63.68;99218.47;6208770;23;20432;-74
2021/08/18 00:45:14;;;;;;;0.10;0.10;;;;;;;21.03;64.11;99229.72;6208627;23;20032;-75
2021/08/18 00:47:51;;;;;;;0.43;0.10;;;;;;;21.02;63.61;99214.25;6185308;23;20012;-75
2021/08/18 00:50:20;;;;;;;0.10;0.10;;;;;;;21.01;63.55;99218.09;6210680;23;20025;-75
2021/08/18 00:52:46;;;;;;;0.10;0.10;;;;;;;21.00;63.34;99210.91;6213375;23;20043;-74
2021/08/18 00:55:13;;;;;;;0.10;0.10;;;;;;;20.94;63.87;99219.00;6211799;23;20032;-75
2021/08/18 00:57:40;;;;;;;0.10;0.10;;;;;;;20.93;63.68;99217.31;6212536;23;20044;-75
2021/08/18 01:00:11;;;;;;;0.10;0.10;;;;;;;20.92;63.96;99226.66;6210760;23;20024;-74
2021/08/18 01:02:38;;;;;;;0.10;0.10;;;;;;;20.88;65.55;99228.19;6161579;23;20025;-76
2021/08/18 01:05:09;;;;;;;0.10;0.10;;;;;;;20.79;64.94;99231.44;6161294;23;20017;-75
2021/08/18 01:07:35;;;;;;;0.10;0.10;;;;;;;20.56;67.79;99238.44;6160524;23;20025;-77
2021/08/18 01:10:12;;;;;;;0.10;0.10;;;;;;;20.23;69.00;99249.69;6185284;23;20020;-74
2021/08/18 01:12:42;;;;;;;0.10;0.10;;;;;;;20.03;70.39;99243.50;6210224;23;20427;-75
2021/08/18 01:15:10;;;;;;;0.10;0.10;;;;;;;20.05;69.67;99238.66;6160218;23;20024;-75
2021/08/18 01:17:44;;;;;;;0.10;0.10;;;;;;;19.93;70.40;99242.13;6209675;23;20024;-75
2021/08/18 01:20:12;;;;;;;0.10;0.10;;;;;;;19.92;70.60;99236.81;6210051;23;20057;-75
2021/08/18 01:22:38;;;;;;;0.10;0.10;;;;;;;19.92;70.14;99226.69;6210076;23;20017;-75
2021/08/18 01:25:06;;;;;;;0.10;0.10;;;;;;;19.95;69.96;99226.25;6211954;23;20355;-74
2021/08/18 01:27:35;;;;;;;0.10;0.10;;;;;;;20.01;70.01;99229.19;6160461;23;20025;-75
2021/08/18 01:30:02;;;;;;;0.10;0.10;;;;;;;20.00;69.85;99225.59;6209916;23;20024;-75
2021/08/18 01:32:49;;;;;;;0.10;0.10;;;;;;;19.97;70.13;99235.13;6186582;23;20032;-74
2021/08/18 01:35:23;;;;;;;0.10;0.10;;;;;;;19.92;70.38;99223.94;6210014;23;20166;-74
2021/08/18 01:37:49;;;;;;;0.10;0.10;;;;;;;19.95;70.24;99230.91;6211713;23;20434;-74
2021/08/18 01:40:15;;;;;;;0.10;0.10;;;;;;;19.89;71.10;99234.53;6209743;23;20086;-74
2021/08/18 01:42:42;;;;;;;0.10;0.10;;;;;;;19.83;71.19;99233.53;6210075;23;20028;-77
2021/08/18 01:45:09;;;;;;;0.10;0.10;;;;;;;19.83;70.76;99228.03;6209989;23;20021;-74
2021/08/18 01:47:34;;;;;;;0.10;0.10;;;;;;;19.80;71.17;99225.72;6184707;23;20055;-76
2021/08/18 01:50:00;;;;;;;0.10;0.10;;;;;;;19.76;70.89;99232.72;6209850;23;20020;-74
2021/08/18 01:52:26;;;;;;;0.10;0.10;;;;;;;19.72;71.42;99231.50;6211142;23;20310;-75
2021/08/18 01:54:54;;;;;;;0.10;0.10;;;;;;;19.70;71.98;99239.09;6184549;23;20027;-75
2021/08/18 01:57:20;;;;;;;0.10;0.10;;;;;;;19.66;72.04;99222.22;6209854;23;20030;-75
2021/08/18 01:59:46;;;;;;;0.10;0.10;;;;;;;19.63;71.74;99224.56;6211444;23;20443;-75
2021/08/18 02:02:11;;;;;;;0.10;0.10;;;;;;;19.64;71.59;99229.03;6209723;23;20044;-74
2021/08/18 02:04:37;;;;;;;0.10;0.10;;;;;;;19.61;71.51;99234.91;6211873;23;20020;-74
2021/08/18 02:07:03;;;;;;;0.10;0.10;;;;;;;19.59;71.42;99237.00;6185086;23;20482;-75
2021/08/18 02:09:29;;;;;;;0.10;0.10;;;;;;;19.58;71.27;99230.69;6212168;23;20016;-76
2021/08/18 02:11:55;;;;;;;0.10;0.10;;;;;;;19.60;70.96;99235.94;6184585;23;20024;-75
2021/08/18 02:14:21;;;;;;;0.10;0.10;;;;;;;19.60;70.85;99238.69;6160445;23;20075;-76
2021/08/18 02:16:50;;;;;;;0.10;0.10;;;;;;;19.62;70.96;99242.06;6185502;23;20089;-76
2021/08/18 02:19:53;;;;;;;0.10;0.10;;;;;;;19.64;70.78;99234.50;6183496;23;20031;31
2021/08/18 02:22:31;;;;;;;0.10;0.10;;;;;;;19.69;70.27;99240.16;6127154;23;20025;-74
2021/08/18 02:24:59;;;;;;;0.10;0.10;;;;;;;19.69;70.54;99237.41;6161060;23;20045;-75
2021/08/18 02:27:25;;;;;;;0.10;0.10;;;;;;;19.72;70.38;99232.31;6181171;23;20021;-76
2021/08/18 02:29:51;;;;;;;0.10;0.10;;;;;;;19.75;69.83;99242.88;6154725;23;20423;-76
2021/08/18 02:32:17;;;;;;;0.10;0.10;;;;;;;19.77;69.91;99244.53;6129139;23;20012;-77
2021/08/18 02:34:43;;;;;;;0.10;0.10;;;;;;;19.79;69.42;99242.44;6154984;23;20025;-74
2021/08/18 02:37:12;;;;;;;0.10;0.10;;;;;;;19.82;69.52;99248.31;6180881;23;20016;-76
2021/08/18 02:39:40;;;;;;;0.10;0.10;;;;;;;19.85;69.23;99247.84;6105680;23;20089;-75
2021/08/18 02:42:16;;;;;;;0.10;0.10;;;;;;;19.90;69.14;99250.78;6181193;23;20020;-76
2021/08/18 02:44:42;;;;;;;0.10;0.10;;;;;;;19.93;69.08;99244.84;6155119;23;20144;-75
2021/08/18 02:47:08;;;;;;;0.10;0.10;;;;;;;19.93;68.49;99252.25;6181677;23;20016;-74
2021/08/18 02:49:35;;;;;;;0.10;0.10;;;;;;;19.94;68.44;99246.53;6154933;23;20113;-75
2021/08/18 02:52:01;;;;;;;0.10;0.10;;;;;;;20.00;68.65;99247.56;6154395;23;20013;-77
2021/08/18 02:54:27;;;;;;;0.10;0.10;;;;;;;20.05;68.14;99257.84;6129767;23;20021;-76
2021/08/18 02:56:53;;;;;;;0.10;0.10;;;;;;;20.10;68.20;99255.28;6104930;23;20364;-77
2021/08/18 02:59:33;;;;;;;0.10;0.10;;;;;;;20.12;68.36;99253.16;6155188;23;20411;-77
2021/08/18 03:02:00;;;;;;;0.10;0.10;;;;;;;20.18;68.16;99252.25;6153344;23;20367;-76
2021/08/18 03:04:25;;;;;;;0.10;0.10;;;;;;;20.20;67.48;99256.47;6105280;23;20032;-76
2021/08/18 03:06:54;;;;;;;0.10;0.10;;;;;;;20.22;67.74;99259.84;6154029;23;20074;-76
2021/08/18 03:09:22;;;;;;;0.10;0.10;;;;;;;20.28;67.57;99263.56;6154357;23;20415;-76
2021/08/18 03:11:49;;;;;;;0.10;0.10;;;;;;;20.35;67.22;99258.88;6153814;23;20111;-78
2021/08/18 03:14:15;;;;;;;0.10;0.10;;;;;;;20.35;67.45;99255.28;6153836;23;20131;-74
2021/08/18 03:16:41;;;;;;;0.10;0.10;;;;;;;20.39;67.14;99254.59;6129410;23;20021;-77
2021/08/18 03:19:07;;;;;;;0.20;0.20;;;;;;;20.43;67.07;99255.00;6180382;23;20063;-74
2021/08/18 03:21:33;;;;;;;0.17;0.17;;;;;;;20.47;66.64;99251.56;6154193;23;20345;-76
2021/08/18 03:24:01;;;;;;;0.20;0.20;;;;;;;20.54;66.72;99247.97;6180189;23;20021;-76
2021/08/18 03:26:27;;;;;;;0.17;0.17;;;;;;;20.60;65.81;99244.31;6180767;23;20029;-75
2021/08/18 03:28:52;;;;;;;0.20;0.20;;;;;;;20.64;66.27;99245.53;6130113;23;20456;-75
2021/08/18 03:31:18;;;;;;;0.10;0.10;;;;;;;20.77;65.64;99245.41;6178461;23;20333;-77
2021/08/18 03:33:44;;;;;;;0.10;0.10;;;;;;;20.75;65.61;99241.22;6130102;23;20029;-76
2021/08/18 03:36:12;;;;;;;0.20;0.20;;;;;;;20.82;64.95;99244.72;6154239;23;20040;-76
2021/08/18 03:38:40;;;;;;;0.20;0.20;;;;;;;20.83;64.73;99239.00;6154588;23;20017;-78
2021/08/18 03:41:07;;;;;;;0.10;0.10;;;;;;;21.02;64.26;99239.00;6181412;23;20082;-76
2021/08/18 03:43:32;;;;;;;0.20;0.20;;;;;;;21.03;64.00;99246.19;6153874;23;20123;-77
2021/08/18 03:45:58;;;;;;;0.10;0.10;;;;;;;21.16;63.54;99238.59;6180364;23;20091;-78
2021/08/18 03:48:24;;;;;;;0.20;0.20;;;;;;;21.25;63.51;99236.41;6153811;23;20035;-75
2021/08/18 03:50:50;;;;;;;0.20;0.20;;;;;;;21.38;62.90;99241.75;6178732;23;20063;-77
2021/08/18 03:53:16;;;;;;;0.20;0.20;;;;;;;21.36;63.32;99243.91;6178868;23;20021;-78
2021/08/18 03:55:42;;;;;;;0.20;0.20;;;;;;;21.41;63.10;99241.28;6154040;23;20012;-77
2021/08/18 03:58:08;;;;;;;0.20;0.20;;;;;;;21.65;62.30;99241.41;6154268;23;20033;-77
2021/08/18 04:00:34;;;;;;;0.20;0.20;;;;;;;21.57;62.62;99244.47;6153865;23;20111;-76
2021/08/18 04:03:01;;;;;;;0.20;0.20;;;;;;;21.68;62.44;99246.41;6154106;23;20021;-75
2021/08/18 04:05:26;;;;;;;0.20;0.20;;;;;;;21.80;61.77;99233.56;6153655;23;20016;-76
2021/08/18 04:07:52;;;;;;;0.20;0.20;;;;;;;21.84;61.85;99237.53;6180727;23;20360;-79
2021/08/18 04:10:18;;;;;;;0.20;0.20;;;;;;;21.93;61.86;99232.50;6180495;23;20459;-79
2021/08/18 04:12:55;;;;;;;0.30;0.30;;;;;;;22.14;61.04;99236.66;6130094;23;20032;-77
2021/08/18 04:15:26;;;;;;;0.20;0.20;;;;;;;22.12;60.51;99242.38;6180409;23;20029;-79
2021/08/18 04:17:52;;;;;;;0.20;0.20;;;;;;;22.08;60.68;99232.06;6154185;23;20027;-78
2021/08/18 04:20:19;;;;;;;0.10;0.10;;;;;;;21.76;61.92;99234.28;6154287;23;20021;-76
2021/08/18 04:22:46;;;;;;;0.10;0.10;;;;;;;21.58;62.71;99232.41;6156040;23;20030;-81
2021/08/18 04:25:16;;;;;;;0.10;0.10;;;;;;;21.51;62.98;99228.91;6154553;23;20451;-77
2021/08/18 04:27:42;;;;;;;0.10;0.10;;;;;;;21.48;63.35;99223.88;6181039;23;20397;-78
2021/08/18 04:30:10;;;;;;;0.10;0.10;;;;;;;21.37;63.89;99223.56;6080681;23;20115;-78
2021/08/18 04:32:36;;;;;;;0.10;0.10;;;;;;;21.39;63.34;99220.59;6180180;23;20074;-78
2021/08/18 04:35:03;;;;;;;0.10;0.10;;;;;;;21.36;63.55;99227.41;6180168;23;20028;-77
2021/08/18 04:37:29;;;;;;;0.10;0.10;;;;;;;21.41;63.69;99224.78;6153929;23;20054;-79
2021/08/18 04:39:55;;;;;;;0.10;0.10;;;;;;;21.43;63.62;99219.91;6180637;23;20013;-76
2021/08/18 04:42:21;;;;;;;0.10;0.10;;;;;;;21.44;63.66;99223.50;6180794;23;20025;-77
2021/08/18 04:44:46;;;;;;;0.10;0.10;;;;;;;21.49;63.65;99225.53;6180546;23;20079;-78
2021/08/18 04:47:12;;;;;;;0.10;0.10;;;;;;;21.53;63.68;99226.75;6154681;23;20443;-79
2021/08/18 04:49:38;;;;;;;0.10;0.10;;;;;;;21.51;63.34;99224.25;6180238;23;20040;-77
2021/08/18 04:52:04;;;;;;;0.10;0.10;;;;;;;21.55;62.68;99230.13;6129711;23;20053;-76
2021/08/18 04:54:30;;;;;;;0.20;0.20;;;;;;;21.66;63.04;99221.06;6180576;23;20017;-77
2021/08/18 04:56:56;;;;;;;0.20;0.20;;;;;;;21.74;62.29;99223.47;6154078;23;20025;-80
2021/08/18 04:59:22;;;;;;;0.20;0.20;;;;;;;22.11;61.44;99218.66;6178851;23;20367;-80
2021/08/18 05:01:47;;;;;;;0.10;0.10;;;;;;;22.05;61.63;99221.53;6180958;23;20028;-78
2021/08/18 05:04:13;;;;;;;0.10;0.10;;;;;;;22.11;61.80;99223.34;6180436;23;20036;-76
2021/08/18 05:06:39;;;;;;;0.10;0.10;;;;;;;22.14;61.74;99220.13;6180540;23;20181;-78
2021/08/18 05:09:05;;;;;;;0.15;0.15;;;;;;;22.15;61.02;99224.56;6180309;23;20149;-80
2021/08/18 05:11:30;;;;;;;0.20;0.20;;;;;;;22.20;61.40;99227.47;6154197;23;20021;-79
2021/08/18 05:13:56;;;;;;;0.10;0.10;;;;;;;22.39;60.64;99226.28;6180452;23;20021;-77
2021/08/18 05:16:22;;;;;;;0.30;0.30;;;;;;;22.84;58.83;99222.06;6180938;23;20017;-79
2021/08/18 05:18:48;;;;;;;0.30;0.30;;;;;;;23.33;57.38;99217.09;6178979;23;20021;-80
2021/08/18 05:21:14;;;;;;;0.20;0.20;;;;;;;23.41;56.87;99210.34;6180657;23;20021;-79
2021/08/18 05:23:39;;;;;;;0.40;0.40;;;;;;;23.92;53.86;99211.31;6129812;23;20016;-79
2021/08/18 05:26:05;;;;;;;0.40;0.40;;;;;;;24.51;53.00;99211.75;6180440;23;20068;-78
2021/08/18 05:28:31;;;;;;;0.40;0.40;;;;;;;24.94;51.47;99208.25;6180318;23;20021;-77
2021/08/18 05:30:57;;;;;;;0.43;0.43;;;;;;;25.57;49.93;99200.44;6179670;23;20093;-78
2021/08/18 05:33:23;;;;;;;0.40;0.40;;;;;;;25.78;49.99;99207.03;6081326;23;20021;-79
2021/08/18 05:35:49;;;;;;;0.40;0.40;;;;;;;26.09;49.44;99210.13;6130121;23;20016;-78
2021/08/18 05:38:15;;;;;;;0.40;0.40;;;;;;;26.36;48.58;99210.91;6181638;23;20391;-80
2021/08/18 05:40:41;;;;;;;0.50;0.50;;;;;;;26.67;47.72;99217.53;6182437;23;20451;-80
2021/08/18 05:43:06;;;;;;;0.40;0.40;;;;;;;26.62;47.51;99220.28;6156194;23;20099;-79
2021/08/18 05:45:32;;;;;;;0.40;0.40;;;;;;;26.86;46.57;99217.91;6183498;23;20359;-82
2021/08/18 05:47:58;;;;;;;0.50;0.50;;;;;;;26.78;46.21;99221.19;6158878;23;20025;-83
2021/08/18 05:50:24;;;;;;;0.50;0.50;;;;;;;27.31;46.52;99229.53;6158775;23;20054;-79
2021/08/18 05:52:49;;;;;;;0.50;0.50;;;;;;;28.00;44.78;99228.38;6188402;23;20021;-81
2021/08/18 05:55:15;;;;;;;0.40;0.40;;;;;;;28.54;43.77;99222.28;6183020;23;20091;-80
2021/08/18 05:57:41;;;;;;;0.50;0.50;;;;;;;29.11;42.75;99217.44;6107792;23;20044;-80
2021/08/18 06:00:07;;;;;;;0.50;0.50;;;;;;;29.68;41.49;99210.53;6182183;23;20017;-81
2021/08/18 06:02:33;;;;;;;0.50;0.50;;;;;;;29.41;41.64;99233.22;6106099;23;20107;-79
2021/08/18 06:04:59;;;;;;;0.50;0.50;;;;;;;29.61;41.57;99230.34;6182641;23;20435;-80
2021/08/18 06:07:25;;;;;;;0.43;0.43;;;;;;;29.96;40.87;99218.16;6183242;23;20055;-80
2021/08/18 06:09:50;;;;;;;0.50;0.50;;;;;;;30.26;40.10;99230.22;6182448;23;20021;-77
2021/08/18 06:12:16;;;;;;;0.50;0.50;;;;;;;31.16;38.04;99229.66;6183292;23;20032;-80
2021/08/18 06:14:45;;;;;;;0.50;0.50;;;;;;;31.09;38.66;99229.16;6109898;23;20139;-80
2021/08/18 06:17:11;;;;;;;0.60;0.60;;;;;;;31.64;38.02;99231.56;6156863;23;20458;-80
2021/08/18 06:19:37;;;;;;;0.20;0.20;;;;;;;31.02;38.96;99222.28;6183403;23;20024;-82
2021/08/18 06:22:04;;;;;;;0.60;0.60;;;;;;;30.41;39.48;99224.50;6183948;23;20100;-80
2021/08/18 06:24:40;;;;;;;0.50;0.50;;;;;;;30.90;39.09;99231.91;6156298;23;20439;-79
2021/08/18 06:27:07;;;;;;;0.60;0.60;;;;;;;31.33;38.18;99225.53;6156131;23;20021;-81
2021/08/18 06:29:34;;;;;;;0.60;0.60;;;;;;;31.20;37.58;99236.28;6183439;23;20044;-84
2021/08/18 06:32:04;;;;;;;0.63;0.63;;;;;;;31.64;37.31;99235.19;6156504;23;20025;-81
2021/08/18 06:34:30;;;;;;;0.60;0.60;;;;;;;31.74;37.33;99228.66;6157097;23;20043;-77
2021/08/18 06:37:01;;;;;;;0.50;0.50;;;;;;;32.61;35.73;99230.09;6155380;23;20021;-78
2021/08/18 06:39:29;;;;;;;0.52;0.52;;;;;;;31.61;36.34;99219.03;6154976;23;20347;-78
2021/08/18 06:41:55;;;;;;;0.30;0.30;;;;;;;31.52;37.17;99220.00;6180777;23;20455;-79
2021/08/18 06:44:21;;;;;;;0.40;0.40;;;;;;;31.02;38.93;99233.44;6156033;23;20017;-78
2021/08/18 06:46:47;;;;;;;0.20;0.20;;;;;;;30.72;39.54;99227.03;6155178;23;20100;-78
2021/08/18 06:49:12;;;;;;;0.70;0.70;;;;;;;30.65;38.79;99229.34;6182978;23;20017;-80
2021/08/18 06:51:38;;;;;;;0.70;0.70;;;;;;;31.68;37.59;99227.03;6156749;23;20029;-81
2021/08/18 06:54:05;;;;;;;0.60;0.60;;;;;;;31.37;37.69;99223.81;6133001;23;20025;-80
2021/08/18 06:56:31;;;;;;;0.70;0.70;;;;;;;32.23;35.62;99227.34;6182878;23;20456;-82
2021/08/18 06:58:56;;;;;;;0.20;0.20;;;;;;;32.00;36.52;99217.94;6182993;23;20017;-82
2021/08/18 07:01:22;;;;;;;0.80;0.80;;;;;;;32.41;35.69;99223.72;6157240;23;20021;-83
2021/08/18 07:03:48;;;;;;;0.55;0.55;;;;;;;32.66;35.48;99216.03;6155973;23;20021;-80
2021/08/18 07:06:14;;;;;;;0.50;0.50;;;;;;;33.00;34.91;99217.66;6181847;23;20055;-78
2021/08/18 07:08:40;;;;;;;0.40;0.40;;;;;;;33.32;33.92;99211.94;6182641;23;20044;-80
2021/08/18 07:11:06;;;;;;;0.70;0.70;;;;;;;33.42;33.35;99216.47;6181925;23;20029;-78
2021/08/18 07:13:32;;;;;;;0.75;0.75;;;;;;;34.91;31.11;99208.97;6155702;23;20012;-78
2021/08/18 07:15:58;;;;;;;0.30;0.30;;;;;;;34.86;30.73;99208.31;6181860;23;20456;-81
2021/08/18 07:18:24;;;;;;;0.30;0.30;;;;;;;35.38;30.39;99198.09;6155665;23;20057;-81
2021/08/18 07:20:51;;;;;;;0.70;0.70;;;;;;;35.68;29.97;99201.97;6155467;23;20056;-79
2021/08/18 07:23:17;;;;;;;0.63;0.63;;;;;;;35.68;29.34;99204.78;6180722;23;20020;-79
2021/08/18 07:25:43;;;;;;;0.60;0.60;;;;;;;34.46;31.43;99211.00;6182250;23;20021;-81
2021/08/18 07:28:09;;;;;;;0.70;0.70;;;;;;;34.64;30.85;99207.19;6156225;23;20105;-81
2021/08/18 07:30:35;;;;;;;0.80;0.80;;;;;;;35.39;30.00;99212.97;6182126;23;20476;-81
2021/08/18 07:33:01;;;;;;;0.75;0.75;;;;;;;35.32;29.85;99215.44;6155613;23;20041;-79
2021/08/18 07:35:27;;;;;;;0.50;0.50;;;;;;;35.91;29.32;99218.72;6182582;23;20043;-81
2021/08/18 07:37:53;;;;;;;0.30;0.30;;;;;;;35.44;29.63;99207.22;6181897;23;20079;-82
2021/08/18 07:40:21;;;;;;;0.50;0.50;;;;;;;35.53;29.77;99212.88;6182370;23;20401;-83
2021/08/18 07:42:47;;;;;;;0.10;0.10;;;;;;;33.43;32.38;99206.13;6155684;23;20117;-80
2021/08/18 07:45:12;;;;;;;0.10;0.10;;;;;;;32.72;34.50;99213.94;6155454;23;20357;-81
2021/08/18 07:47:38;;;;;;;0.10;0.10;;;;;;;31.96;35.45;99207.66;6182520;23;20342;-81
2021/08/18 07:50:04;;;;;;;0.10;0.10;;;;;;;31.39;35.96;99205.63;6181596;23;20059;-81
2021/08/18 07:52:30;;;;;;;0.10;0.10;;;;;;;31.20;37.04;99210.31;6181990;23;20352;-81
2021/08/18 07:54:56;;;;;;;0.98;0.98;;;;;;;31.88;35.70;99212.78;6155300;23;20185;-79
2021/08/18 07:57:22;;;;;;;0.10;0.10;;;;;;;32.23;35.55;99218.13;6181694;23;20075;-80
2021/08/18 07:59:51;;;;;;;0.10;0.10;;;;;;;31.89;36.18;99208.88;6181383;23;20013;-78
2021/08/18 08:02:20;;;;;;;0.70;0.70;;;;;;;32.12;35.98;99203.50;6181696;23;20339;-79
2021/08/18 08:04:47;;;;;;;1.08;1.08;;;;;;;33.57;33.37;99201.34;6181683;23;20023;-80
2021/08/18 08:07:14;;;;;;;0.70;0.70;;;;;;;34.47;31.83;99202.25;6182260;23;20424;-79
2021/08/18 08:09:40;;;;;;;0.50;0.50;;;;;;;34.66;31.43;99209.66;6106194;23;20017;-78
2021/08/18 08:12:06;;;;;;;0.10;0.10;;;;;;;34.70;31.64;99211.53;6155500;23;20537;-78
2021/08/18 08:14:31;;;;;;;1.02;1.02;;;;;;;34.51;31.96;99202.47;6155419;23;20104;-83
2021/08/18 08:16:57;;;;;;;0.50;0.50;;;;;;;35.10;30.09;99214.38;6105690;23;20021;-81
2021/08/18 08:19:23;;;;;;;0.40;0.40;;;;;;;35.71;29.06;99206.94;6181422;23;20099;-79
2021/08/18 08:21:49;;;;;;;1.02;1.02;;;;;;;36.45;27.94;99205.13;6181092;23;20454;-79
2021/08/18 08:24:15;;;;;;;0.43;0.43;;;;;;;36.80;27.98;99197.44;6181162;23;20470;-80
2021/08/18 08:26:42;;;;;;;0.80;0.80;;;;;;;37.46;26.14;99199.03;6181305;23;20025;-81
2021/08/18 08:29:08;;;;;;;0.30;0.30;;;;;;;36.12;29.22;99197.22;6155136;23;20017;-82
2021/08/18 08:31:35;;;;;;;0.73;0.73;;;;;;;35.50;29.77;99184.25;6180665;23;20164;-79
2021/08/18 08:34:00;;;;;;;0.40;0.40;;;;;;;36.26;28.90;99193.41;6156015;23;20115;-79
2021/08/18 08:36:26;;;;;;;0.80;0.80;;;;;;;36.26;28.64;99193.41;6182178;23;20455;-78
2021/08/18 08:38:52;;;;;;;0.98;0.98;;;;;;;36.07;29.46;99191.75;6155252;23;20032;-81
2021/08/18 08:41:19;;;;;;;0.90;0.90;;;;;;;37.50;27.35;99188.69;6155129;23;20301;-80
2021/08/18 08:43:46;;;;;;;0.90;0.90;;;;;;;38.34;26.51;99186.69;6181969;23;20662;-80
2021/08/18 08:46:12;;;;;;;0.70;0.70;;;;;;;38.24;26.54;99204.06;6131362;23;20021;-80
2021/08/18 08:48:39;;;;;;;0.80;0.80;;;;;;;39.00;24.83;99195.13;6182191;23;20013;-80
2021/08/18 08:51:05;;;;;;;0.70;0.70;;;;;;;38.81;25.44;99187.22;6130470;23;20476;-81
2021/08/18 08:53:32;;;;;;;0.70;0.70;;;;;;;39.92;23.62;99185.19;6155418;23;20017;-81
2021/08/18 08:55:57;;;;;;;0.50;0.50;;;;;;;39.02;24.18;99183.50;6181441;23;20072;-81
2021/08/18 08:58:23;;;;;;;0.17;0.17;;;;;;;36.67;27.60;99176.75;6181814;23;20016;-82
2021/08/18 09:00:49;;;;;;;0.20;0.20;;;;;;;35.80;29.17;99180.81;6183262;23;20021;-81
2021/08/18 09:03:18;;;;;;;0.22;0.22;;;;;;;35.52;30.16;99183.94;6159002;23;20363;-81
2021/08/18 09:05:45;;;;;;;0.20;0.20;;;;;;;34.47;31.90;99173.38;6131964;23;20025;-80
2021/08/18 09:08:16;;;;;;;0.20;0.20;;;;;;;34.14;32.40;99176.44;6182539;23;20032;-81
2021/08/18 09:11:11;;;;;;;0.38;0.38;;;;;;;34.20;32.85;99179.97;6158074;23;20124;-80
2021/08/18 09:13:51;;;;;;;0.90;0.90;;;;;;;34.80;31.15;99180.34;6184869;23;20017;-79
2021/08/18 09:16:21;;;;;;;0.90;0.90;;;;;;;35.61;30.03;99179.13;6159272;23;20017;-81
2021/08/18 09:18:47;;;;;;;0.90;0.90;;;;;;;35.67;29.73;99171.38;6187731;23;20021;-79
2021/08/18 09:21:30;;;;;;;0.90;0.90;;;;;;;35.51;29.79;99171.03;6161990;23;20052;-81
2021/08/18 09:24:11;;;;;;;0.80;0.80;;;;;;;36.10;29.08;99167.78;6189894;23;20100;-82
2021/08/18 09:26:43;;;;;;;0.70;0.70;;;;;;;37.29;27.04;99168.88;6188768;23;20416;-81
2021/08/18 09:29:09;;;;;;;0.60;0.60;;;;;;;37.18;27.78;99169.28;6137733;23;20412;-80
2021/08/18 09:31:35;;;;;;;0.70;0.70;;;;;;;36.16;28.79;99172.88;6188888;23;20448;-80
2021/08/18 09:34:01;;;;;;;0.70;0.70;;;;;;;35.63;29.20;99165.59;6162954;23;20121;-81
2021/08/18 09:36:29;;;;;;;0.60;0.60;;;;;;;36.25;28.62;99169.25;6189269;23;20100;-81
2021/08/18 09:39:17;;;;;;;0.65;0.65;;;;;;;36.61;28.11;99166.84;6137652;23;20092;-80
2021/08/18 09:41:43;;;;;;;0.70;0.70;;;;;;;36.68;27.83;99178.44;6188830;23;20028;-81
2021/08/18 09:44:09;;;;;;;0.70;0.70;;;;;;;36.10;29.32;99171.41;6189260;23;20016;-81
2021/08/18 09:46:37;;;;;;;0.70;0.70;;;;;;;36.13;28.54;99156.66;6187937;23;20025;-81
2021/08/18 09:49:11;;;;;;;0.70;0.70;;;;;;;36.64;28.11;99166.19;6162869;23;20017;-82
2021/08/18 09:51:38;;;;;;;0.70;0.70;;;;;;;36.64;28.65;99160.56;6161722;23;20021;-81
2021/08/18 09:54:17;;;;;;;0.70;0.70;;;;;;;37.04;27.75;99160.25;6159006;23;20024;-80
2021/08/18 09:56:45;;;;;;;0.60;0.60;;;;;;;37.14;27.79;99147.75;6183224;23;20072;-80
2021/08/18 09:59:11;;;;;;;0.60;0.60;;;;;;;38.09;26.34;99141.41;6182791;23;20173;-80
2021/08/18 10:01:39;;;;;;;0.60;0.60;;;;;;;37.72;27.46;99151.69;6182706;23;20024;-82
2021/08/18 10:04:05;;;;;;;0.60;0.60;;;;;;;37.16;26.23;99151.88;6155708;23;20031;-80
2021/08/18 10:06:31;;;;;;;0.60;0.60;;;;;;;36.22;27.09;99140.56;6182317;23;20469;-80
2021/08/18 10:08:58;;;;;;;0.63;0.63;;;;;;;36.77;26.99;99147.41;6182452;23;20020;-81
2021/08/18 10:11:26;;;;;;;0.60;0.60;;;;;;;37.23;26.56;99147.72;6182368;23;20025;-80
2021/08/18 10:13:52;;;;;;;0.60;0.60;;;;;;;37.34;25.91;99134.88;6131225;23;20017;-81
2021/08/18 10:16:19;;;;;;;0.60;0.60;;;;;;;37.36;26.23;99132.50;6181936;23;20390;-82
2021/08/18 10:18:46;;;;;;;0.60;0.60;;;;;;;35.99;26.88;99133.50;6182351;23;20020;-80
2021/08/18 10:21:18;;;;;;;0.60;0.60;;;;;;;36.89;25.84;99126.94;6155733;23;20071;-80
2021/08/18 10:24:05;;;;;;;0.60;0.60;;;;;;;37.15;25.43;99113.59;6182412;23;20025;-80
2021/08/18 10:26:36;;;;;;;0.60;0.60;;;;;;;37.89;24.76;99108.44;6180680;23;20021;-80
2021/08/18 10:29:04;;;;;;;;;;;;;;;37.76;24.75;99110.31;6183752;23;20028;-81
2021/08/18 10:31:42;;;;;;;0.60;0.60;;;;;;;37.93;25.49;99103.72;6180306;23;19920;-83
2021/08/18 10:34:08;;;;;;;0.60;0.60;;;;;;;37.73;25.38;99105.38;6182339;23;20016;-81
2021/08/18 10:36:56;;;;;;;0.60;0.60;;;;;;;37.32;26.00;99103.34;6182543;23;20427;-81
2021/08/18 10:39:24;;;;;;;0.10;0.10;;;;;;;37.80;25.23;99099.16;6181454;23;20020;-82
2021/08/18 10:42:12;;;;;;;0.50;0.50;;;;;;;37.47;25.74;99101.94;6182579;23;20028;-83
2021/08/18 10:44:42;;;;;;;0.50;0.50;;;;;;;37.31;25.65;99093.25;6182268;23;20016;-82
2021/08/18 10:47:23;;;;;;;0.10;0.10;;;;;;;36.67;27.20;99100.69;6181915;23;20032;-83
2021/08/18 10:49:53;;;;;;;0.60;0.60;;;;;;;35.22;29.72;99098.53;6182427;23;20017;-80
2021/08/18 10:52:28;;;;;;;0.75;0.75;;;;;;;35.31;29.83;99098.53;6181845;23;20083;-79
2021/08/18 10:55:17;;;;;;;0.60;0.60;;;;;;;36.78;28.33;99091.88;6181246;23;20024;-79
2021/08/18 10:57:53;;;;;;;0.50;0.50;;;;;;;36.98;27.84;99091.16;6180427;23;20021;-78
2021/08/18 11:00:42;;;;;;;0.50;0.50;;;;;;;36.50;27.02;99091.53;6182047;23;20043;-82
2021/08/18 11:03:16;;;;;;;0.50;0.50;;;;;;;36.08;27.52;99092.09;6143347;23;20421;-81
2021/08/18 11:05:46;;;;;;;0.50;0.50;;;;;;;36.05;28.43;99098.38;6155869;23;20028;-81
2021/08/18 11:08:17;;;;;;;0.50;0.50;;;;;;;36.50;27.69;99092.34;6182863;23;20052;-80
2021/08/18 11:10:52;;;;;;;0.50;0.50;;;;;;;36.89;26.54;99090.31;6155463;23;20024;-81
2021/08/18 11:13:33;;;;;;;0.60;0.60;;;;;;;37.15;26.45;99082.59;6181694;23;20025;-80
2021/08/18 11:16:08;;;;;;;0.30;0.30;;;;;;;38.32;25.47;99081.72;6181877;23;20108;-80
2021/08/18 11:18:35;;;;;;;0.10;0.10;;;;;;;37.12;25.85;99086.09;6130563;23;20021;-81
2021/08/18 11:21:01;;;;;;;0.10;0.10;;;;;;;35.84;27.88;99083.34;6181936;23;20052;-81
2021/08/18 11:23:28;;;;;;;0.10;0.10;;;;;;;34.74;28.92;99069.31;6181639;23;20017;-83
2021/08/18 11:26:00;;;;;;;0.10;0.10;;;;;;;34.27;29.74;99071.72;6179582;23;20021;-80
2021/08/18 11:28:27;;;;;;;0.60;0.60;;;;;;;34.91;28.64;99070.50;6154449;23;20047;-80
2021/08/18 11:31:00;;;;;;;0.60;0.60;;;;;;;35.35;28.29;99060.16;6153727;23;20016;-80
2021/08/18 11:33:26;;;;;;;0.10;0.10;;;;;;;35.16;28.39;99061.31;6154661;23;20051;-80
2021/08/18 11:35:53;;;;;;;0.13;0.13;;;;;;;35.78;27.83;99064.97;6181441;23;20051;-81
2021/08/18 11:38:19;;;;;;;0.40;0.40;;;;;;;35.80;27.56;99048.59;6180912;23;20470;-80